createdAt,value
2023-04-09T00:02:17.395Z,21.17
2023-04-09T00:04:44.530Z,16.52
2023-04-09T00:07:11.774Z,17.02
2023-04-09T00:09:38.892Z,15.75
2023-04-09T00:12:05.949Z,17.80
2023-04-09T00:14:32.899Z,18.83
2023-04-09T00:16:59.868Z,13.43
2023-04-09T00:19:26.862Z,15.63
2023-04-09T00:21:53.828Z,15.88
2023-04-09T00:24:20.967Z,13.60
2023-04-09T00:26:49.143Z,13.13
2023-04-09T00:29:16.235Z,14.75
2023-04-09T00:31:43.502Z,15.53
2023-04-09T00:34:10.823Z,17.00
2023-04-09T00:36:37.803Z,18.30
2023-04-09T00:39:04.860Z,16.67
2023-04-09T00:41:32.218Z,17.80
2023-04-09T00:43:59.212Z,15.90
2023-04-09T00:46:26.381Z,18.33
2023-04-09T00:48:54.195Z,20.63
2023-04-09T00:51:21.318Z,15.73
2023-04-09T00:53:48.492Z,18.13
2023-04-09T00:56:18.750Z,16.77
2023-04-09T00:58:45.948Z,15.93
2023-04-09T01:01:12.932Z,19.27
2023-04-09T01:03:40.520Z,15.47
2023-04-09T01:06:20.369Z,16.27
2023-04-09T01:09:24.948Z,55.22
2023-04-09T01:12:11.238Z,187.87
2023-04-09T01:14:57.280Z,436.75
2023-04-09T01:17:48.613Z,335.50
2023-04-09T01:20:54.434Z,118.37
2023-04-09T01:23:52.269Z,101.43
2023-04-09T01:26:52.077Z,161.00
2023-04-09T01:29:21.787Z,57.72
2023-04-09T01:31:50.740Z,41.90
2023-04-09T01:34:20.371Z,72.80
2023-04-09T01:36:55.606Z,66.03
2023-04-09T01:39:23.612Z,66.10
2023-04-09T01:41:51.518Z,77.28
2023-04-09T01:44:19.880Z,95.07
2023-04-09T01:46:48.691Z,129.03
2023-04-09T01:49:17.593Z,137.80
2023-04-09T01:51:44.923Z,109.22
2023-04-09T01:54:11.885Z,143.20
2023-04-09T01:56:44.476Z,212.73
2023-04-09T01:59:12.626Z,184.43
2023-04-09T02:02:01.938Z,159.40
2023-04-09T02:04:44.244Z,37.43
2023-04-09T02:07:39.100Z,21.45
2023-04-09T02:10:08.728Z,19.87
2023-04-09T02:12:39.070Z,21.10
2023-04-09T02:15:07.368Z,20.58
2023-04-09T02:17:34.714Z,19.85
2023-04-09T02:20:01.784Z,20.88
2023-04-09T02:22:28.841Z,17.98
2023-04-09T02:24:55.846Z,18.38
2023-04-09T02:27:22.814Z,21.03
2023-04-09T02:29:50.733Z,19.67
2023-04-09T02:32:17.744Z,19.35
2023-04-09T02:34:45.914Z,20.23
2023-04-09T02:37:12.900Z,24.98
2023-04-09T02:39:39.872Z,39.57
2023-04-09T02:42:07.998Z,57.03
2023-04-09T02:44:35.373Z,31.90
2023-04-09T02:47:03.211Z,21.83
2023-04-09T02:49:30.685Z,19.15
2023-04-09T02:51:57.669Z,20.50
2023-04-09T02:54:24.736Z,31.90
2023-04-09T02:56:51.742Z,30.93
2023-04-09T02:59:18.707Z,26.93
2023-04-09T03:01:45.994Z,23.10
2023-04-09T03:04:13.206Z,25.45
2023-04-09T03:06:40.341Z,20.10
2023-04-09T03:09:07.361Z,23.67
2023-04-09T03:11:34.325Z,25.70
2023-04-09T03:14:01.379Z,23.58
2023-04-09T03:16:28.562Z,25.37
2023-04-09T03:18:55.493Z,25.90
2023-04-09T03:21:22.514Z,25.57
2023-04-09T03:23:51.185Z,25.92
2023-04-09T03:26:18.208Z,25.35
2023-04-09T03:28:48.404Z,21.92
2023-04-09T03:31:16.464Z,20.73
2023-04-09T03:33:44.785Z,20.52
2023-04-09T03:36:12.409Z,22.48
2023-04-09T03:39:00.455Z,20.53
2023-04-09T03:41:43.296Z,24.00
2023-04-09T03:44:14.247Z,23.55
2023-04-09T03:46:55.233Z,21.85
2023-04-09T03:49:23.132Z,38.80
2023-04-09T03:51:50.631Z,32.97
2023-04-09T03:54:17.995Z,31.90
2023-04-09T03:56:46.198Z,35.13
2023-04-09T03:59:15.998Z,28.43
2023-04-09T04:01:46.957Z,25.52
2023-04-09T04:04:14.777Z,32.30
2023-04-09T04:06:46.430Z,26.97
2023-04-09T04:09:29.529Z,22.77
2023-04-09T04:12:02.350Z,25.73
2023-04-09T04:14:49.933Z,25.50
2023-04-09T04:17:26.145Z,23.45
2023-04-09T04:19:54.651Z,24.95
2023-04-09T04:22:24.898Z,23.03
2023-04-09T04:24:55.951Z,23.40
2023-04-09T04:27:23.526Z,22.27
2023-04-09T04:29:51.020Z,23.50
2023-04-09T04:32:26.114Z,22.50
2023-04-09T04:34:54.684Z,19.17
2023-04-09T04:37:25.554Z,23.50
2023-04-09T04:39:56.811Z,22.20
2023-04-09T04:42:23.806Z,24.17
2023-04-09T04:44:50.937Z,20.30
2023-04-09T04:47:35.440Z,24.77
2023-04-09T04:50:04.685Z,23.40
2023-04-09T04:52:40.382Z,23.10
2023-04-09T04:55:09.323Z,26.23
2023-04-09T04:57:36.681Z,27.03
2023-04-09T05:00:04.791Z,27.20
2023-04-09T05:02:31.856Z,25.80
2023-04-09T05:05:34.468Z,22.03
2023-04-09T05:08:01.801Z,21.77
2023-04-09T05:10:28.994Z,23.17
2023-04-09T05:12:57.247Z,23.90
2023-04-09T05:15:39.837Z,26.37
2023-04-09T05:18:08.840Z,25.27
2023-04-09T05:20:36.778Z,25.73
2023-04-09T05:23:10.219Z,24.17
2023-04-09T05:25:41.448Z,24.03
2023-04-09T05:28:16.705Z,22.67
2023-04-09T05:30:48.201Z,25.17
2023-04-09T05:33:16.595Z,26.00
2023-04-09T05:35:43.980Z,26.27
2023-04-09T05:38:11.187Z,21.93
2023-04-09T05:40:38.735Z,28.10
2023-04-09T05:43:11.905Z,27.17
2023-04-09T05:45:42.769Z,25.07
2023-04-09T05:48:10.050Z,22.77
2023-04-09T05:50:51.147Z,21.60
2023-04-09T05:53:22.323Z,21.23
2023-04-09T05:55:49.481Z,19.90
2023-04-09T05:58:19.067Z,19.13
2023-04-09T06:00:47.464Z,19.80
2023-04-09T06:03:14.675Z,18.57
2023-04-09T06:05:41.851Z,20.50
2023-04-09T06:08:08.834Z,19.63
2023-04-09T06:10:35.788Z,22.90
2023-04-09T06:13:02.770Z,23.87
2023-04-09T06:15:30.236Z,21.63
2023-04-09T06:17:59.339Z,23.52
2023-04-09T06:20:26.428Z,21.23
2023-04-09T06:22:53.393Z,21.65
2023-04-09T06:25:20.461Z,23.50
2023-04-09T06:27:47.491Z,23.13
2023-04-09T06:30:14.522Z,25.90
2023-04-09T06:32:53.217Z,26.10
2023-04-09T06:35:21.388Z,21.10
2023-04-09T06:37:48.302Z,19.58
2023-04-09T06:40:15.554Z,18.35
2023-04-09T06:42:42.547Z,20.17
2023-04-09T06:45:20.850Z,19.05
2023-04-09T06:47:48.268Z,19.95
2023-04-09T06:50:15.430Z,20.10
2023-04-09T06:52:42.365Z,24.17
2023-04-09T06:55:09.747Z,20.23
2023-04-09T06:57:37.826Z,19.17
2023-04-09T07:00:05.588Z,21.97
2023-04-09T07:02:32.878Z,17.87
2023-04-09T07:04:59.996Z,18.48
2023-04-09T07:07:26.966Z,18.60
2023-04-09T07:09:54.048Z,17.10
2023-04-09T07:12:33.210Z,17.15
2023-04-09T07:15:01.963Z,18.05
2023-04-09T07:17:29.168Z,21.80
2023-04-09T07:19:56.483Z,20.33
2023-04-09T07:22:26.763Z,17.92
2023-04-09T07:24:54.839Z,18.90
2023-04-09T07:27:26.534Z,19.83
2023-04-09T07:30:00.360Z,19.52
2023-04-09T07:32:28.282Z,19.25
2023-04-09T07:34:56.100Z,18.15
2023-04-09T07:37:23.332Z,18.85
2023-04-09T07:39:51.345Z,19.08
2023-04-09T07:42:18.432Z,20.42
2023-04-09T07:44:45.389Z,18.42
2023-04-09T07:47:12.955Z,20.15
2023-04-09T07:49:40.276Z,21.88
2023-04-09T07:52:08.185Z,21.17
2023-04-09T07:54:35.481Z,22.48
2023-04-09T07:57:02.972Z,21.05
2023-04-09T07:59:31.586Z,21.55
2023-04-09T08:01:59.344Z,24.80
2023-04-09T08:04:28.018Z,19.83
2023-04-09T08:06:55.267Z,19.60
2023-04-09T08:09:22.599Z,16.50
2023-04-09T08:11:50.371Z,16.42
2023-04-09T08:14:18.578Z,16.77
2023-04-09T08:16:48.018Z,16.23
2023-04-09T08:19:17.313Z,16.48
2023-04-09T08:21:44.593Z,16.05
2023-04-09T08:24:12.025Z,16.60
2023-04-09T08:26:43.070Z,20.17
2023-04-09T08:29:12.948Z,14.35
2023-04-09T08:31:40.171Z,16.50
2023-04-09T08:34:07.428Z,16.15
2023-04-09T08:36:35.807Z,14.93
2023-04-09T08:39:04.050Z,18.17
2023-04-09T08:41:31.546Z,16.80
2023-04-09T08:43:59.978Z,15.85
2023-04-09T08:46:29.050Z,13.45
2023-04-09T08:48:56.290Z,14.70
2023-04-09T08:51:25.065Z,14.38
2023-04-09T08:54:03.981Z,14.75
2023-04-09T08:56:32.056Z,13.18
2023-04-09T08:58:59.256Z,15.50
2023-04-09T09:01:31.286Z,14.82
2023-04-09T09:04:03.879Z,15.23
2023-04-09T09:06:38.673Z,14.07
2023-04-09T09:09:07.908Z,14.25
2023-04-09T09:11:41.288Z,14.10
2023-04-09T09:14:11.251Z,11.18
2023-04-09T09:17:06.305Z,9.93
2023-04-09T09:19:33.930Z,11.98
2023-04-09T09:22:07.284Z,12.82
2023-04-09T09:24:34.998Z,12.30
2023-04-09T09:27:03.065Z,11.23
2023-04-09T09:29:30.205Z,11.35
2023-04-09T09:31:57.340Z,11.18
2023-04-09T09:34:26.020Z,10.95
2023-04-09T09:36:53.272Z,10.77
2023-04-09T09:39:22.084Z,10.98
2023-04-09T09:42:07.157Z,11.90
2023-04-09T09:44:34.234Z,14.85
2023-04-09T09:47:03.810Z,13.05
2023-04-09T09:49:31.023Z,13.80
2023-04-09T09:52:03.002Z,14.38
2023-04-09T09:54:47.865Z,15.20
2023-04-09T09:57:19.891Z,11.48
2023-04-09T10:00:06.445Z,11.35
2023-04-09T10:02:57.346Z,14.98
2023-04-09T10:05:27.442Z,14.15
2023-04-09T10:07:57.785Z,15.88
2023-04-09T10:10:27.293Z,14.60
2023-04-09T10:12:54.318Z,13.63
2023-04-09T10:15:21.580Z,14.25
2023-04-09T10:17:49.988Z,12.98
2023-04-09T10:20:26.250Z,12.00
2023-04-09T10:22:53.966Z,12.43
2023-04-09T10:25:21.301Z,11.18
2023-04-09T10:28:15.077Z,11.80
2023-04-09T10:30:43.788Z,14.38
2023-04-09T10:33:28.094Z,14.27
2023-04-09T10:36:00.230Z,12.13
2023-04-09T10:38:42.716Z,10.80
2023-04-09T10:41:22.783Z,9.30
2023-04-09T10:43:50.357Z,10.00
2023-04-09T10:46:36.916Z,10.20
2023-04-09T10:49:42.549Z,10.98
2023-04-09T10:52:13.669Z,9.52
2023-04-09T10:54:45.321Z,12.63
2023-04-09T10:57:22.680Z,10.80
2023-04-09T10:59:59.989Z,10.68
2023-04-09T11:02:39.593Z,10.45
2023-04-09T11:05:25.818Z,9.57
2023-04-09T11:08:14.054Z,14.30
2023-04-09T11:10:44.602Z,14.02
2023-04-09T11:13:13.626Z,12.60
2023-04-09T11:15:41.761Z,12.75
2023-04-09T11:18:12.131Z,12.23
2023-04-09T11:20:39.983Z,17.48
2023-04-09T11:23:07.404Z,13.00
2023-04-09T11:25:35.660Z,11.65
2023-04-09T11:28:08.145Z,11.55
2023-04-09T11:30:37.474Z,10.93
2023-04-09T11:33:04.791Z,11.30
2023-04-09T11:35:36.285Z,12.88
2023-04-09T11:38:08.472Z,13.80
2023-04-09T11:40:35.605Z,12.52
2023-04-09T11:43:03.198Z,16.98
2023-04-09T11:45:32.282Z,12.75
2023-04-09T11:47:59.548Z,11.60
2023-04-09T11:50:26.788Z,11.40
2023-04-09T11:52:53.974Z,10.82
2023-04-09T11:55:29.617Z,9.13
2023-04-09T11:58:01.231Z,10.57
2023-04-09T12:00:29.097Z,11.43
2023-04-09T12:03:05.215Z,8.75
2023-04-09T12:05:34.754Z,11.25
2023-04-09T12:08:08.059Z,13.05
2023-04-09T12:10:38.554Z,13.82
2023-04-09T12:13:12.056Z,12.23
2023-04-09T12:15:41.882Z,11.68
2023-04-09T12:18:11.592Z,11.77
2023-04-09T12:20:47.795Z,18.38
2023-04-09T12:23:15.979Z,11.57
2023-04-09T12:25:45.382Z,12.43
2023-04-09T12:28:15.882Z,12.18
2023-04-09T12:30:43.605Z,11.80
2023-04-09T12:33:11.468Z,12.75
2023-04-09T12:35:38.910Z,12.98
2023-04-09T12:38:06.405Z,11.93
2023-04-09T12:40:33.944Z,12.48
2023-04-09T12:43:01.913Z,10.63
2023-04-09T12:45:30.903Z,11.38
2023-04-09T12:47:58.573Z,14.18
2023-04-09T12:50:26.030Z,12.18
2023-04-09T12:52:53.075Z,14.25
2023-04-09T12:55:20.093Z,12.82
2023-04-09T12:57:50.034Z,11.10
2023-04-09T13:00:17.139Z,15.13
2023-04-09T13:02:44.335Z,12.43
2023-04-09T13:05:11.816Z,13.82
2023-04-09T13:07:40.890Z,10.45
2023-04-09T13:10:10.375Z,11.82
2023-04-09T13:12:37.577Z,13.75
2023-04-09T13:15:05.549Z,10.48
2023-04-09T13:17:32.958Z,12.77
2023-04-09T13:20:00.002Z,14.88
2023-04-09T13:22:27.308Z,12.93
2023-04-09T13:24:54.385Z,14.93
2023-04-09T13:27:22.091Z,13.75
2023-04-09T13:29:49.181Z,13.25
2023-04-09T13:32:18.259Z,11.57
2023-04-09T13:34:45.410Z,12.13
2023-04-09T13:37:12.470Z,12.68
2023-04-09T13:39:39.508Z,11.90
2023-04-09T13:42:13.579Z,13.32
2023-04-09T13:44:44.869Z,11.55
2023-04-09T13:47:14.199Z,11.35
2023-04-09T13:49:42.418Z,12.15
2023-04-09T13:52:10.735Z,11.70
2023-04-09T13:54:37.799Z,10.90
2023-04-09T13:57:04.974Z,13.30
2023-04-09T13:59:32.212Z,12.38
2023-04-09T14:01:59.360Z,8.52
2023-04-09T14:04:26.704Z,9.43
2023-04-09T14:06:53.777Z,9.48
2023-04-09T14:09:21.110Z,13.88
2023-04-09T14:11:49.543Z,8.90
2023-04-09T14:14:17.809Z,10.10
2023-04-09T14:16:48.734Z,7.93
2023-04-09T14:19:16.732Z,10.88
2023-04-09T14:21:44.637Z,9.77
2023-04-09T14:24:12.651Z,11.40
2023-04-09T14:26:39.954Z,12.10
2023-04-09T14:29:06.998Z,9.52
2023-04-09T14:31:34.300Z,10.60
2023-04-09T14:34:01.833Z,12.95
2023-04-09T14:36:29.069Z,11.05
2023-04-09T14:38:58.469Z,10.57
2023-04-09T14:41:26.569Z,9.05
2023-04-09T14:43:53.734Z,10.48
2023-04-09T14:46:22.208Z,10.60
2023-04-09T14:48:49.498Z,7.28
2023-04-09T14:51:16.759Z,7.20
2023-04-09T14:53:43.802Z,9.25
2023-04-09T14:56:10.855Z,7.13
2023-04-09T14:58:38.106Z,6.68
2023-04-09T15:01:05.716Z,6.63
2023-04-09T15:03:33.036Z,7.50
2023-04-09T15:06:00.184Z,6.95
2023-04-09T15:08:27.275Z,8.85
2023-04-09T15:10:54.333Z,7.03
2023-04-09T15:13:21.372Z,6.63
2023-04-09T15:15:48.515Z,10.43
2023-04-09T15:18:15.650Z,9.15
2023-04-09T15:20:43.589Z,9.30
2023-04-09T15:23:11.124Z,7.80
2023-04-09T15:25:38.980Z,8.32
2023-04-09T15:28:06.868Z,8.80
2023-04-09T15:30:35.525Z,7.35
2023-04-09T15:33:02.849Z,47.42
2023-04-09T15:35:29.990Z,11.35
2023-04-09T15:37:57.425Z,10.50
2023-04-09T15:40:24.699Z,9.15
2023-04-09T15:42:51.863Z,9.63
2023-04-09T15:45:18.955Z,11.40
2023-04-09T15:47:46.819Z,9.27
2023-04-09T15:50:14.556Z,12.70
2023-04-09T15:52:41.658Z,8.68
2023-04-09T15:55:09.737Z,10.20
2023-04-09T15:57:38.737Z,9.40
2023-04-09T16:00:10.732Z,7.90
2023-04-09T16:02:39.018Z,12.10
2023-04-09T16:05:07.280Z,11.63
2023-04-09T16:07:34.810Z,8.77
2023-04-09T16:10:02.666Z,6.63
2023-04-09T16:12:29.833Z,7.47
2023-04-09T16:14:56.904Z,9.18
2023-04-09T16:17:24.401Z,9.90
2023-04-09T16:19:51.544Z,10.32
2023-04-09T16:22:18.612Z,8.23
2023-04-09T16:24:45.807Z,8.38
2023-04-09T16:27:14.482Z,9.52
2023-04-09T16:29:44.860Z,6.80
2023-04-09T16:32:12.981Z,10.02
2023-04-09T16:34:40.923Z,7.35
2023-04-09T16:37:08.367Z,7.15
2023-04-09T16:39:35.574Z,17.98
2023-04-09T16:42:02.830Z,10.60
2023-04-09T16:44:30.302Z,9.45
2023-04-09T16:46:57.797Z,7.97
2023-04-09T16:49:25.067Z,9.32
2023-04-09T16:51:53.180Z,8.15
2023-04-09T16:54:20.863Z,6.82
2023-04-09T16:56:48.845Z,7.25
2023-04-09T16:59:18.428Z,7.63
2023-04-09T17:01:45.786Z,9.55
2023-04-09T17:04:13.009Z,9.98
2023-04-09T17:06:40.327Z,16.13
2023-04-09T17:09:07.560Z,10.10
2023-04-09T17:11:34.851Z,8.48
2023-04-09T17:14:01.946Z,10.90
2023-04-09T17:16:29.052Z,9.55
2023-04-09T17:18:56.466Z,11.48
2023-04-09T17:21:23.624Z,11.55
2023-04-09T17:23:50.704Z,10.13
2023-04-09T17:26:21.162Z,13.27
2023-04-09T17:28:48.393Z,15.45
2023-04-09T17:31:16.135Z,14.15
2023-04-09T17:33:47.612Z,16.42
2023-04-09T17:36:17.137Z,18.75
2023-04-09T17:38:44.253Z,14.30
2023-04-09T17:41:11.265Z,17.42
2023-04-09T17:43:38.262Z,16.17
2023-04-09T17:46:07.572Z,14.82
2023-04-09T17:48:38.407Z,19.55
2023-04-09T17:51:06.289Z,13.05
2023-04-09T17:53:33.379Z,13.18
2023-04-09T17:56:03.083Z,13.70
2023-04-09T17:58:30.152Z,16.27
2023-04-09T18:00:57.078Z,12.98
2023-04-09T18:03:25.788Z,11.77
2023-04-09T18:05:54.329Z,12.82
2023-04-09T18:08:21.624Z,11.43
2023-04-09T18:11:04.767Z,14.23
2023-04-09T18:13:38.397Z,14.73
2023-04-09T18:16:10.662Z,16.25
2023-04-09T18:18:38.261Z,16.23
2023-04-09T18:21:06.209Z,12.85
2023-04-09T18:23:33.609Z,14.30
2023-04-09T18:26:00.746Z,17.63
2023-04-09T18:28:28.130Z,12.25
2023-04-09T18:30:55.228Z,16.20
2023-04-09T18:33:22.987Z,16.58
2023-04-09T18:35:49.973Z,14.10
2023-04-09T18:38:17.574Z,15.73
2023-04-09T18:40:44.857Z,13.25
2023-04-09T18:43:12.453Z,14.95
2023-04-09T18:45:39.777Z,13.57
2023-04-09T18:48:08.758Z,8.77
2023-04-09T18:50:36.146Z,12.13
2023-04-09T18:53:06.981Z,14.25
2023-04-09T18:55:37.765Z,11.18
2023-04-09T18:58:12.706Z,9.93
2023-04-09T19:00:39.881Z,10.15
2023-04-09T19:03:07.311Z,8.90
2023-04-09T19:05:35.641Z,8.20
2023-04-09T19:08:07.521Z,8.43
2023-04-09T19:10:34.519Z,7.00
2023-04-09T19:13:01.682Z,6.25
2023-04-09T19:15:29.628Z,6.90
2023-04-09T19:17:57.374Z,10.35
2023-04-09T19:20:24.526Z,11.18
2023-04-09T19:22:56.646Z,7.22
2023-04-09T19:25:24.297Z,10.25
2023-04-09T19:27:53.653Z,6.38
2023-04-09T19:30:21.255Z,9.13
2023-04-09T19:32:48.313Z,6.85
2023-04-09T19:35:15.590Z,7.95
2023-04-09T19:37:42.590Z,9.52
2023-04-09T19:40:10.408Z,8.82
2023-04-09T19:42:37.718Z,7.25
2023-04-09T19:45:05.406Z,7.82
2023-04-09T19:47:33.918Z,7.90
2023-04-09T19:50:01.030Z,10.77
2023-04-09T19:52:28.041Z,8.23
2023-04-09T19:54:56.416Z,5.78
2023-04-09T19:57:23.458Z,8.30
2023-04-09T19:59:52.178Z,9.70
2023-04-09T20:02:19.285Z,6.43
2023-04-09T20:04:46.468Z,7.90
2023-04-09T20:07:13.748Z,8.18
2023-04-09T20:09:42.408Z,5.38
2023-04-09T20:12:10.233Z,7.97
2023-04-09T20:14:38.288Z,4.88
2023-04-09T20:17:08.720Z,7.13
2023-04-09T20:19:36.197Z,4.95
2023-04-09T20:22:03.228Z,6.40
2023-04-09T20:24:30.746Z,8.38
2023-04-09T20:26:59.479Z,6.78
2023-04-09T20:29:26.723Z,8.00
2023-04-09T20:31:53.790Z,7.30
2023-04-09T20:34:26.414Z,6.10
2023-04-09T20:36:54.435Z,9.32
2023-04-09T20:39:22.591Z,8.27
2023-04-09T20:41:49.801Z,7.07
2023-04-09T20:44:16.893Z,8.68
2023-04-09T20:46:43.970Z,7.25
2023-04-09T20:49:11.101Z,9.05
2023-04-09T20:51:38.170Z,7.78
2023-04-09T20:54:05.316Z,10.45
2023-04-09T20:56:32.314Z,7.50
2023-04-09T20:58:59.371Z,8.00
2023-04-09T21:01:29.102Z,9.50
2023-04-09T21:03:56.864Z,10.82
2023-04-09T21:06:24.295Z,11.40
2023-04-09T21:08:51.857Z,11.20
2023-04-09T21:11:19.099Z,10.07
2023-04-09T21:13:54.726Z,10.60
2023-04-09T21:16:23.183Z,10.55
2023-04-09T21:18:50.472Z,11.75
2023-04-09T21:21:17.624Z,11.23
2023-04-09T21:23:44.711Z,11.95
2023-04-09T21:26:11.817Z,12.75
2023-04-09T21:28:38.984Z,10.50
2023-04-09T21:31:06.274Z,15.90
2023-04-09T21:33:33.431Z,11.95
2023-04-09T21:36:01.250Z,12.73
2023-04-09T21:38:28.266Z,16.55
2023-04-09T21:40:55.306Z,14.55
2023-04-09T21:43:22.347Z,13.60
2023-04-09T21:45:49.566Z,12.85
2023-04-09T21:48:16.760Z,16.38
2023-04-09T21:50:43.759Z,14.95
2023-04-09T21:53:10.976Z,14.70
2023-04-09T21:55:38.932Z,13.15
2023-04-09T21:58:06.157Z,16.08
2023-04-09T22:00:33.164Z,15.85
2023-04-09T22:03:01.322Z,14.10
2023-04-09T22:05:29.233Z,16.95
2023-04-09T22:07:56.629Z,15.77
2023-04-09T22:10:24.154Z,17.63
2023-04-09T22:12:51.430Z,13.57
2023-04-09T22:15:20.366Z,13.70
2023-04-09T22:17:47.751Z,13.50
2023-04-09T22:20:14.735Z,13.75
2023-04-09T22:22:42.511Z,18.77
2023-04-09T22:25:11.634Z,17.40
2023-04-09T22:27:39.146Z,17.65
2023-04-09T22:30:07.158Z,15.00
2023-04-09T22:32:34.750Z,18.40
2023-04-09T22:35:02.033Z,16.70
2023-04-09T22:37:29.091Z,17.83
2023-04-09T22:39:56.429Z,19.08
2023-04-09T22:42:25.228Z,20.45
2023-04-09T22:44:53.815Z,42.60
2023-04-09T22:47:20.942Z,53.53
2023-04-09T22:49:48.030Z,45.28
2023-04-09T22:52:15.012Z,66.45
2023-04-09T22:54:43.274Z,73.45
2023-04-09T22:57:10.346Z,69.90
2023-04-09T22:59:40.727Z,68.60
2023-04-09T23:02:08.417Z,62.88
2023-04-09T23:04:35.757Z,56.58
2023-04-09T23:07:02.824Z,54.60
2023-04-09T23:09:31.185Z,58.50
2023-04-09T23:11:58.223Z,51.58
2023-04-09T23:14:25.351Z,49.97
2023-04-09T23:16:52.333Z,40.90
2023-04-09T23:19:19.482Z,40.47
2023-04-09T23:21:46.447Z,35.73
2023-04-09T23:24:13.579Z,37.38
2023-04-09T23:26:40.672Z,33.28
2023-04-09T23:29:07.617Z,39.83
2023-04-09T23:31:34.712Z,44.30
2023-04-09T23:34:01.647Z,42.40
2023-04-09T23:36:28.936Z,35.73
2023-04-09T23:38:55.987Z,37.27
2023-04-09T23:41:22.934Z,42.50
2023-04-09T23:43:50.918Z,51.08
2023-04-09T23:46:17.863Z,51.17
2023-04-09T23:48:44.936Z,45.30
2023-04-09T23:51:21.256Z,54.00
2023-04-09T23:53:48.202Z,47.30
2023-04-09T23:56:15.157Z,32.03
2023-04-09T23:58:43.153Z,30.63
